Time;durP1;ratioP1;P1;durP2;ratioP2;P2;SDS_P1;SDS_P2;PMS_P1;PMS_P2;Temp;Humidity;BMP_temperature;BMP_pressure;BME280_temperature;BME280_humidity;BME280_pressure;Samples;Min_cycle;Max_cycle;Signal;HPM_P1;HPM_P2
2023/04/16 00:01:48;;;;;;;36.07;27.70;;;9.80;99.90;;;9.16;85.75;101083.28;5093789;28;20193;-77
2023/04/16 00:04:20;;;;;;;34.73;27.17;;;9.80;99.90;;;9.16;86.18;101085.94;5093721;28;20213;-77
2023/04/16 00:06:52;;;;;;;31.67;27.17;;;9.80;99.90;;;9.15;86.02;101083.41;5093387;28;20557;-77
2023/04/16 00:09:24;;;;;;;29.67;25.57;;;9.80;99.90;;;9.08;86.19;101084.94;5094302;28;20196;-77
2023/04/16 00:11:57;;;;;;;32.73;26.80;;;9.70;99.90;;;9.07;86.40;101088.63;5094179;28;20185;-76
2023/04/16 00:14:29;;;;;;;30.23;25.67;;;9.70;99.90;;;9.06;86.43;101085.13;5093751;28;20184;-77
2023/04/16 00:17:01;;;;;;;32.30;26.43;;;9.70;99.90;;;9.08;86.59;101098.31;5093617;28;20631;-77
2023/04/16 00:19:33;;;;;;;30.53;27.20;;;9.70;99.90;;;9.08;86.44;101087.63;5093653;28;20200;-77
2023/04/16 00:22:05;;;;;;;29.20;26.00;;;9.70;99.90;;;9.06;86.92;101094.94;5093575;28;20185;-77
2023/04/16 00:24:37;;;;;;;32.23;26.07;;;9.70;99.90;;;9.08;86.59;101092.97;5093232;28;20205;-77
2023/04/16 00:27:10;;;;;;;32.03;26.50;;;9.70;99.90;;;9.03;86.98;101090.75;5093473;28;20277;-77
2023/04/16 00:29:42;;;;;;;32.37;27.07;;;9.70;99.90;;;8.95;86.93;101092.41;5093503;28;20184;-77
2023/04/16 00:32:14;;;;;;;34.00;27.30;;;9.60;99.90;;;8.98;87.07;101084.13;5093190;28;20562;-77
2023/04/16 00:34:46;;;;;;;32.10;27.13;;;9.60;99.90;;;8.97;86.66;101093.94;5093447;28;20193;-77
2023/04/16 00:37:17;;;;;;;31.00;26.60;;;9.60;99.90;;;8.98;86.51;101092.13;5093401;28;20232;-77
2023/04/16 00:39:50;;;;;;;35.23;28.20;;;9.70;99.90;;;9.00;86.66;101096.38;5093441;28;20208;-77
2023/04/16 00:42:23;;;;;;;32.87;28.10;;;9.60;99.90;;;8.96;87.05;101094.09;5093413;28;20196;-77
2023/04/16 00:44:55;;;;;;;34.70;27.43;;;9.60;99.90;;;8.92;86.60;101098.88;5092986;28;20215;-77
2023/04/16 00:47:27;;;;;;;34.00;27.40;;;9.60;99.90;;;8.92;86.40;101104.22;5093286;28;20247;-77
2023/04/16 00:49:59;;;;;;;35.50;28.47;;;9.60;99.90;;;8.88;87.16;101096.63;5093462;28;20283;-76
2023/04/16 00:52:32;;;;;;;34.53;28.90;;;9.50;99.90;;;8.84;87.05;101098.75;5094434;28;20633;-76
2023/04/16 00:55:04;;;;;;;35.80;28.67;;;9.50;99.90;;;8.87;86.36;101100.31;5097410;28;20185;-76
2023/04/16 00:57:37;;;;;;;34.67;29.17;;;9.50;99.90;;;8.80;86.13;101097.31;5096881;28;20277;-77
2023/04/16 01:00:09;;;;;;;40.57;29.57;;;9.50;99.90;;;8.83;86.13;101093.56;5096848;28;20240;-77
2023/04/16 01:02:42;;;;;;;37.13;29.17;;;9.50;99.90;;;8.73;85.96;101090.03;5096911;28;20585;-77
2023/04/16 01:05:14;;;;;;;36.00;30.03;;;9.40;99.90;;;8.70;85.99;101093.00;5097149;28;20213;-77
2023/04/16 01:07:46;;;;;;;40.30;30.60;;;9.40;99.90;;;8.67;86.27;101091.44;5096999;28;20275;-77
2023/04/16 01:10:17;;;;;;;38.93;31.00;;;9.30;99.90;;;8.63;86.52;101096.19;5097044;28;20197;-77
2023/04/16 01:12:50;;;;;;;39.67;30.60;;;9.30;99.90;;;8.66;86.03;101092.44;5096995;28;20189;-77
2023/04/16 01:15:22;;;;;;;36.63;29.87;;;9.30;99.90;;;8.64;86.09;101099.72;5096987;28;20271;-77
2023/04/16 01:17:55;;;;;;;40.93;30.40;;;9.30;99.90;;;8.62;86.11;101102.53;5096832;28;20228;-77
2023/04/16 01:20:26;;;;;;;39.90;31.03;;;9.30;99.90;;;8.68;85.49;101103.78;5096897;28;20616;-75
2023/04/16 01:22:59;;;;;;;38.87;29.80;;;9.30;99.90;;;8.71;85.84;101108.00;5097339;28;20189;-75
2023/04/16 01:25:31;;;;;;;38.53;30.67;;;9.40;99.90;;;8.68;85.71;101113.63;5096652;28;20212;-75
2023/04/16 01:28:03;;;;;;;36.80;30.07;;;9.30;99.90;;;8.70;86.15;101119.69;5096675;28;20235;-75
2023/04/16 01:30:35;;;;;;;39.23;30.93;;;9.30;99.90;;;8.65;85.28;101123.63;5096458;28;20649;-77
2023/04/16 01:33:09;;;;;;;38.20;30.33;;;9.30;99.90;;;8.72;85.33;101133.72;5096605;28;20193;-76
2023/04/16 01:35:41;;;;;;;36.47;30.47;;;9.40;99.90;;;8.69;85.34;101136.69;5096616;28;20185;-76
2023/04/16 01:38:14;;;;;;;41.80;30.20;;;9.30;99.90;;;8.65;85.45;101141.44;5096470;28;20225;-76
2023/04/16 01:40:46;;;;;;;38.70;28.30;;;9.30;99.90;;;8.61;85.76;101138.22;5096505;28;20200;-76
2023/04/16 01:43:18;;;;;;;41.00;30.33;;;9.30;99.90;;;8.62;86.34;101139.06;5096117;28;20599;-76
2023/04/16 01:45:50;;;;;;;38.30;30.80;;;9.30;99.90;;;8.58;85.64;101143.81;5096148;28;20554;-75
2023/04/16 01:48:22;;;;;;;38.80;30.57;;;9.20;99.90;;;8.59;85.71;101140.19;5096478;28;20221;-76
2023/04/16 01:50:53;;;;;;;38.03;30.77;;;9.30;99.90;;;8.61;85.67;101138.22;5096278;28;20242;-76
2023/04/16 01:53:27;;;;;;;39.30;30.37;;;9.20;99.90;;;8.53;86.26;101146.03;5096321;28;20215;-76
2023/04/16 01:55:59;;;;;;;40.40;31.93;;;9.20;99.90;;;8.56;86.55;101143.09;5096182;28;20181;-76
2023/04/16 01:58:34;;;;;;;39.40;30.40;;;9.20;99.90;;;8.57;86.12;101147.47;5095857;28;20247;-76
2023/04/16 02:01:07;;;;;;;39.23;29.10;;;9.20;99.90;;;8.58;86.05;101149.16;5095814;28;20197;-76
2023/04/16 02:03:42;;;;;;;35.10;28.50;;;9.30;99.90;;;8.48;86.01;101140.28;5094730;28;20634;-76
2023/04/16 02:06:13;;;;;;;38.43;30.43;;;9.20;99.90;;;8.45;86.05;101143.25;5095651;28;20213;-75
2023/04/16 02:08:46;;;;;;;41.60;31.23;;;9.10;99.90;;;8.34;86.71;101148.69;5095892;28;20228;-76
2023/04/16 02:11:18;;;;;;;41.07;32.03;;;9.10;99.90;;;8.39;86.48;101143.75;5095956;28;20189;-76
2023/04/16 02:13:50;;;;;;;38.93;30.40;;;9.10;99.90;;;8.41;86.56;101144.50;5095818;28;20193;-76
2023/04/16 02:16:22;;;;;;;42.37;31.07;;;9.10;99.90;;;8.35;86.52;101153.03;5095795;28;20287;-76
2023/04/16 02:18:54;;;;;;;39.30;31.87;;;9.00;99.90;;;8.35;87.08;101158.38;5095710;28;20701;-76
2023/04/16 02:21:26;;;;;;;41.07;30.90;;;9.00;99.90;;;8.40;86.77;101156.13;5095701;28;20197;-76
2023/04/16 02:23:59;;;;;;;41.37;30.43;;;9.00;99.90;;;8.39;86.22;101162.44;5095625;28;20200;-77
2023/04/16 02:26:32;;;;;;;44.83;32.23;;;9.00;99.90;;;8.27;86.73;101166.16;5095580;28;20259;-76
2023/04/16 02:29:03;;;;;;;39.67;30.80;;;8.90;99.90;;;8.33;86.57;101165.66;5096421;28;20229;-77
2023/04/16 02:31:35;;;;;;;41.47;30.23;;;9.00;99.90;;;8.32;86.47;101163.97;5095512;28;20193;-77
2023/04/16 02:34:07;;;;;;;40.53;32.07;;;9.00;99.90;;;8.24;86.41;101163.78;5095124;28;20638;-77
2023/04/16 02:36:39;;;;;;;45.97;32.63;;;8.90;99.90;;;8.27;86.28;101170.66;5095295;28;20197;-78
2023/04/16 02:39:12;;;;;;;47.10;32.47;;;8.90;99.90;;;8.26;86.40;101168.97;5095346;28;20193;-77
2023/04/16 02:41:44;;;;;;;42.30;32.20;;;8.90;99.90;;;8.18;86.40;101165.13;5095295;28;20247;-77
2023/04/16 02:44:16;;;;;;;43.83;32.10;;;8.90;99.90;;;8.18;86.48;101172.31;5095040;28;20770;-77
2023/04/16 02:46:47;;;;;;;43.50;32.70;;;8.90;99.90;;;8.12;86.76;101167.50;5094824;28;20622;-77
2023/04/16 02:49:19;;;;;;;45.13;33.97;;;8.80;99.90;;;8.00;86.87;101173.91;5095149;28;20185;-77
2023/04/16 02:51:51;;;;;;;41.27;32.07;;;8.70;99.90;;;8.04;86.83;101175.34;5095148;28;20189;-77
2023/04/16 02:54:24;;;;;;;41.40;31.73;;;8.70;99.90;;;8.07;86.47;101169.75;5094787;28;20641;-77
2023/04/16 02:56:56;;;;;;;42.63;32.63;;;8.80;99.90;;;8.12;86.53;101178.16;5094669;28;20504;-77
2023/04/16 02:59:28;;;;;;;42.73;32.33;;;8.80;99.90;;;8.11;86.98;101177.34;5094663;28;20216;-76
2023/04/16 03:02:00;;;;;;;42.47;30.87;;;8.80;99.90;;;8.11;86.46;101180.03;5094629;28;20197;-76
2023/04/16 03:04:32;;;;;;;46.60;32.37;;;8.80;99.90;;;7.94;86.66;101185.13;5094882;28;20271;-76
2023/04/16 03:07:04;;;;;;;46.83;33.50;;;8.60;99.90;;;7.92;86.74;101181.72;5094370;28;20697;-77
2023/04/16 03:09:37;;;;;;;47.80;33.50;;;8.70;99.90;;;7.94;87.01;101190.47;5094834;28;20189;-77
2023/04/16 03:12:09;;;;;;;43.50;32.10;;;8.60;99.90;;;7.99;87.15;101175.75;5094712;28;20197;-77
2023/04/16 03:14:41;;;;;;;47.57;33.17;;;8.60;99.90;;;7.99;86.29;101182.88;5094231;28;20703;-77
2023/04/16 03:17:13;;;;;;;45.03;32.93;;;8.70;99.90;;;7.97;86.95;101180.38;5094581;28;20256;-76
2023/04/16 03:19:45;;;;;;;47.67;33.80;;;8.70;99.90;;;7.90;87.18;101186.38;5094570;28;20197;-76
2023/04/16 03:22:17;;;;;;;46.83;32.53;;;8.60;99.90;;;7.97;86.47;101184.84;5094252;28;20200;-76
2023/04/16 03:24:51;;;;;;;45.40;33.97;;;8.70;99.90;;;7.96;86.28;101188.50;5094429;28;20189;-77
2023/04/16 03:27:23;;;;;;;42.13;31.63;;;8.70;99.90;;;7.99;86.48;101185.56;5094393;28;20235;-76
2023/04/16 03:29:54;;;;;;;44.50;32.60;;;8.70;99.90;;;7.95;86.87;101195.63;5094410;28;20189;-76
2023/04/16 03:32:26;;;;;;;44.50;32.33;;;8.60;99.90;;;8.00;86.23;101196.09;5094031;28;20189;-77
2023/04/16 03:34:58;;;;;;;42.93;30.27;;;8.70;99.90;;;8.00;86.35;101200.59;5094394;28;20224;-77
2023/04/16 03:37:30;;;;;;;43.73;32.00;;;8.70;99.90;;;8.01;85.74;101187.09;5094147;28;20227;-77
2023/04/16 03:40:04;;;;;;;43.43;32.07;;;8.70;99.90;;;7.96;86.41;101197.34;5094243;28;20199;-76
2023/04/16 03:42:35;;;;;;;43.20;31.40;;;8.60;99.90;;;7.94;86.62;101196.63;5094165;28;20193;-77
2023/04/16 03:45:09;;;;;;;43.17;30.57;;;8.50;99.90;;;7.86;86.70;101203.59;5094176;28;20277;-77
2023/04/16 03:47:41;;;;;;;42.03;31.97;;;8.50;99.90;;;7.81;86.86;101197.81;5093919;28;20254;-77
2023/04/16 03:50:14;;;;;;;42.77;30.87;;;8.50;99.90;;;7.82;86.89;101196.81;5094058;28;20194;-76
2023/04/16 03:52:48;;;;;;;43.53;32.10;;;8.50;99.90;;;7.75;87.25;101203.66;5094000;28;20196;-76
2023/04/16 03:55:21;;;;;;;39.93;31.30;;;8.40;99.90;;;7.78;87.30;101206.06;5093971;28;20188;-76
2023/04/16 03:57:53;;;;;;;43.60;32.03;;;8.50;99.90;;;7.77;87.17;101201.72;5094353;28;20229;-77
2023/04/16 04:00:25;;;;;;;42.47;30.87;;;8.40;99.90;;;7.74;87.71;101208.13;5093900;28;20193;-76
2023/04/16 04:02:57;;;;;;;40.23;30.00;;;8.40;99.90;;;7.79;87.29;101203.28;5093924;28;20210;-76
2023/04/16 04:05:29;;;;;;;44.23;30.13;;;8.50;99.90;;;7.68;87.15;101208.66;5094407;28;20216;-76
2023/04/16 04:08:00;;;;;;;45.17;31.17;;;8.40;99.90;;;7.67;87.05;101199.00;5093590;28;20236;-76
2023/04/16 04:10:35;;;;;;;42.93;31.57;;;8.40;99.90;;;7.71;87.78;101194.22;5093410;28;20193;-77
2023/04/16 04:13:09;;;;;;;41.67;32.00;;;8.40;99.90;;;7.64;87.75;101199.22;5093700;28;20189;-77
2023/04/16 04:15:41;;;;;;;45.33;31.93;;;8.40;99.90;;;7.62;88.00;101207.38;5093760;28;20189;-77
2023/04/16 04:18:13;;;;;;;40.13;30.90;;;8.30;99.90;;;7.70;87.49;101216.53;5093586;28;20595;-77
2023/04/16 04:20:46;;;;;;;42.23;30.80;;;8.30;99.90;;;7.75;87.49;101212.50;5093635;28;20204;-77
2023/04/16 04:23:17;;;;;;;43.57;30.47;;;8.40;99.90;;;7.77;87.30;101217.72;5093297;28;20193;-77
2023/04/16 04:25:51;;;;;;;42.47;30.50;;;8.50;99.90;;;7.77;86.94;101225.72;5093632;28;20193;-76
2023/04/16 04:28:23;;;;;;;44.93;32.80;;;8.40;99.90;;;7.70;87.80;101219.22;5092850;28;20273;-77
2023/04/16 04:30:54;;;;;;;44.87;31.73;;;8.40;99.90;;;7.70;87.83;101221.88;5093584;28;20211;-76
2023/04/16 04:33:26;;;;;;;45.07;32.13;;;8.40;99.90;;;7.68;88.02;101219.31;5093550;28;20196;-76
2023/04/16 04:35:58;;;;;;;44.47;32.10;;;8.40;99.90;;;7.68;87.89;101223.81;5093190;28;20204;-76
2023/04/16 04:38:30;;;;;;;45.43;33.30;;;8.40;99.90;;;7.70;87.75;101213.88;5093392;28;20221;-76
2023/04/16 04:41:03;;;;;;;43.50;30.27;;;8.40;99.90;;;7.69;87.24;101223.69;5093447;28;20197;-76
2023/04/16 04:43:35;;;;;;;44.03;30.70;;;8.40;99.90;;;7.72;87.50;101222.56;5093476;28;20203;-76
2023/04/16 04:46:07;;;;;;;42.70;30.57;;;8.40;99.90;;;7.69;87.71;101218.34;5093197;28;20664;-76
2023/04/16 04:48:39;;;;;;;42.13;30.23;;;8.40;99.90;;;7.73;87.33;101211.81;5093308;28;20315;-76
2023/04/16 04:51:11;;;;;;;42.43;28.90;;;8.40;99.90;;;7.68;87.69;101221.16;5093459;28;20193;-76
2023/04/16 04:53:42;;;;;;;41.33;30.40;;;8.40;99.90;;;7.65;88.03;101227.59;5093443;28;20189;-77
2023/04/16 04:56:15;;;;;;;42.80;30.17;;;8.40;99.90;;;7.71;87.88;101227.06;5093118;28;20638;-77
2023/04/16 04:58:49;;;;;;;48.20;29.07;;;8.40;99.90;;;7.75;87.22;101244.47;5093243;28;20251;-77
2023/04/16 05:01:21;;;;;;;39.00;28.30;;;8.40;99.90;;;7.66;87.25;101239.94;5093358;28;20200;-77
2023/04/16 05:03:53;;;;;;;43.63;29.07;;;8.40;99.90;;;7.67;87.55;101240.78;5093357;28;20185;-77
2023/04/16 05:06:25;;;;;;;37.30;26.97;;;8.40;99.90;;;7.65;87.59;101236.44;5093023;28;20645;-77
2023/04/16 05:09:00;;;;;;;36.77;27.83;;;8.40;99.90;;;7.72;86.87;101233.25;5093218;28;20273;-77
2023/04/16 05:11:33;;;;;;;37.40;27.13;;;8.40;99.90;;;7.74;87.19;101247.31;5092960;28;20236;-77
2023/04/16 05:14:05;;;;;;;36.03;26.23;;;8.40;99.90;;;7.76;86.86;101250.66;5093236;28;20246;-77
2023/04/16 05:16:38;;;;;;;37.07;27.37;;;8.40;99.90;;;7.76;87.34;101253.34;5093249;28;20211;-77
2023/04/16 05:19:10;;;;;;;38.37;27.40;;;8.50;99.90;;;7.77;86.77;101255.03;5093229;28;20196;-77
2023/04/16 05:21:42;;;;;;;36.80;27.80;;;8.50;99.90;;;7.79;86.94;101267.25;5092795;28;20528;-77
2023/04/16 05:24:14;;;;;;;32.53;25.43;;;8.50;99.90;;;7.77;86.77;101263.88;5092830;28;20593;-77
2023/04/16 05:26:47;;;;;;;36.57;26.97;;;8.50;99.90;;;7.76;86.85;101266.66;5092984;28;20318;-77
2023/04/16 05:29:19;;;;;;;34.00;26.73;;;8.40;99.90;;;7.74;86.95;101263.28;5093083;28;20197;-77
2023/04/16 05:31:51;;;;;;;36.53;27.63;;;8.40;99.90;;;7.75;87.21;101268.47;5092732;28;20219;-77
2023/04/16 05:34:23;;;;;;;38.07;27.80;;;8.40;99.90;;;7.72;87.34;101270.56;5093022;28;20186;-77
2023/04/16 05:36:54;;;;;;;36.40;25.47;;;8.40;99.90;;;7.73;86.98;101273.09;5092952;28;20193;-77
2023/04/16 05:39:26;;;;;;;35.03;25.43;;;8.40;99.90;;;7.73;87.59;101277.59;5094139;28;20189;-77
2023/04/16 05:42:00;;;;;;;34.07;25.70;;;8.40;99.90;;;7.71;87.46;101276.84;5096568;28;20199;-76
2023/04/16 05:44:31;;;;;;;32.80;24.97;;;8.40;99.90;;;7.71;87.14;101280.38;5096554;28;20193;-76
2023/04/16 05:47:03;;;;;;;33.70;26.47;;;8.40;99.90;;;7.70;87.03;101280.50;5096815;28;20228;-77
2023/04/16 05:49:36;;;;;;;39.13;26.60;;;8.40;99.90;;;7.75;87.18;101283.63;5096117;28;20641;-77
2023/04/16 05:52:08;;;;;;;35.33;25.97;;;8.40;99.90;;;7.75;87.24;101281.81;5096412;28;20193;-77
2023/04/16 05:54:39;;;;;;;37.03;25.17;;;8.40;99.90;;;7.74;87.71;101300.59;5096360;28;20193;-77
2023/04/16 05:57:13;;;;;;;34.17;25.13;;;8.40;99.90;;;7.75;87.03;101291.59;5096226;28;20236;-77
2023/04/16 05:59:44;;;;;;;34.07;25.60;;;8.50;99.90;;;7.76;87.00;101294.16;5095849;28;20633;-77
2023/04/16 06:02:16;;;;;;;35.30;24.73;;;8.50;99.90;;;7.78;87.35;101296.69;5096209;28;20189;-77
2023/04/16 06:04:49;;;;;;;36.43;25.83;;;8.50;99.90;;;7.76;86.85;101283.50;5096105;28;20223;-77
2023/04/16 06:07:21;;;;;;;32.70;24.67;;;8.50;99.90;;;7.78;86.92;101296.69;5095917;28;20221;-77
2023/04/16 06:09:53;;;;;;;34.53;25.30;;;8.50;99.90;;;7.76;87.05;101303.97;5096072;28;20201;-77
2023/04/16 06:12:26;;;;;;;34.17;24.57;;;8.50;99.90;;;7.73;87.63;101309.56;5095722;28;20193;-77
2023/04/16 06:14:57;;;;;;;33.87;24.97;;;8.50;99.90;;;7.77;86.78;101311.00;5095640;28;20646;-77
2023/04/16 06:17:29;;;;;;;37.20;26.17;;;8.50;99.90;;;7.77;87.35;101316.34;5095860;28;20228;-77
2023/04/16 06:20:01;;;;;;;35.13;24.73;;;8.50;99.90;;;7.80;87.33;101310.75;5095852;28;20193;-77
2023/04/16 06:22:33;;;;;;;31.13;23.87;;;8.50;99.90;;;7.77;87.23;101316.34;5095774;28;20197;-77
2023/04/16 06:25:05;;;;;;;36.93;25.47;;;8.50;99.90;;;7.76;87.50;101315.47;5096315;28;20193;-77
2023/04/16 06:27:38;;;;;;;30.90;24.30;;;8.50;99.90;;;7.73;87.69;101312.22;5095586;28;20232;-77
2023/04/16 06:30:15;;;;;;;35.20;25.33;;;8.50;99.90;;;7.71;87.44;101319.50;5095395;28;20645;-77
2023/04/16 06:32:47;;;;;;;33.03;25.83;;;8.40;99.90;;;7.74;87.53;101324.59;5095686;28;20189;-77
2023/04/16 06:35:19;;;;;;;33.53;25.73;;;8.40;99.90;;;7.76;87.02;101322.63;5095546;28;20272;-77
2023/04/16 06:37:51;;;;;;;32.20;23.57;;;8.50;99.90;;;7.82;87.07;101328.28;5095490;28;20225;-77
2023/04/16 06:40:23;;;;;;;31.80;23.73;;;8.50;99.90;;;7.80;86.85;101340.06;5095461;28;20189;-77
2023/04/16 06:42:56;;;;;;;33.03;23.77;;;8.50;99.90;;;7.75;86.52;101334.25;5095427;28;20192;-77
2023/04/16 06:45:27;;;;;;;33.87;24.10;;;8.50;99.90;;;7.69;87.07;101335.63;5095118;28;20201;-77
2023/04/16 06:48:00;;;;;;;33.60;24.20;;;8.40;99.90;;;7.63;86.53;101347.66;5094872;28;20720;-77
2023/04/16 06:50:32;;;;;;;32.00;23.27;;;8.40;99.90;;;7.71;86.58;101348.81;5094816;28;20216;-77
2023/04/16 06:53:04;;;;;;;29.50;22.47;;;8.40;99.90;;;7.72;87.00;101345.19;5095201;28;20197;-77
2023/04/16 06:55:36;;;;;;;28.40;21.93;;;8.40;99.90;;;7.74;87.13;101348.56;5094863;28;20637;-77
2023/04/16 06:58:09;;;;;;;31.77;22.87;;;8.50;99.90;;;7.71;86.29;101348.81;5094831;28;20230;-77
2023/04/16 07:00:40;;;;;;;32.63;22.47;;;8.40;99.90;;;7.67;86.72;101350.06;5095058;28;20193;-76
2023/04/16 07:03:12;;;;;;;30.87;22.37;;;8.40;99.90;;;7.66;86.41;101351.88;5095002;28;20190;-77
2023/04/16 07:05:44;;;;;;;31.07;22.63;;;8.40;99.90;;;7.68;86.37;101357.06;5094632;28;20196;-77
2023/04/16 07:08:16;;;;;;;33.23;23.47;;;8.40;99.90;;;7.71;86.20;101348.81;5094817;28;20229;-77
2023/04/16 07:10:48;;;;;;;29.50;21.90;;;8.50;99.90;;;7.75;86.60;101347.59;5094558;28;20656;-77
2023/04/16 07:13:21;;;;;;;28.40;22.17;;;8.50;99.90;;;7.69;85.87;101345.44;5094841;28;20220;-77
2023/04/16 07:15:53;;;;;;;28.00;22.23;;;8.40;99.90;;;7.68;86.24;101349.91;5094779;28;20250;-77
2023/04/16 07:18:25;;;;;;;32.87;22.67;;;8.40;99.90;;;7.71;85.69;101348.81;5094637;28;20223;-77
2023/04/16 07:20:57;;;;;;;31.23;22.13;;;8.40;99.90;;;7.76;85.72;101351.94;5094361;28;20653;-77
2023/04/16 07:23:28;;;;;;;33.00;22.30;;;8.50;99.90;;;7.80;86.28;101348.06;5094299;28;20700;-77
2023/04/16 07:26:00;;;;;;;26.57;20.73;;;8.50;99.90;;;7.82;86.26;101344.28;5094632;28;20189;-77
2023/04/16 07:28:33;;;;;;;29.33;21.90;;;8.60;99.90;;;7.82;85.62;101356.75;5094073;28;20685;-77
2023/04/16 07:31:05;;;;;;;30.83;21.57;;;8.50;99.90;;;7.85;85.69;101357.34;5094520;28;20189;-77
2023/04/16 07:33:38;;;;;;;29.47;20.77;;;8.60;99.90;;;7.90;85.65;101356.97;5094286;28;20201;-77
2023/04/16 07:36:11;;;;;;;29.10;21.47;;;8.60;99.90;;;7.92;85.60;101369.19;5094408;28;20185;-77
2023/04/16 07:38:42;;;;;;;28.47;21.03;;;8.60;99.90;;;7.94;85.66;101366.41;5093955;28;20613;-77
2023/04/16 07:41:14;;;;;;;27.83;21.93;;;8.70;99.90;;;7.95;85.03;101366.28;5094308;28;20189;-77
2023/04/16 07:43:47;;;;;;;28.27;21.27;;;8.70;99.90;;;7.98;85.00;101368.69;5094246;28;20192;-77
2023/04/16 07:46:19;;;;;;;27.83;20.07;;;8.70;99.90;;;7.99;85.89;101373.06;5094265;28;20189;-77
2023/04/16 07:48:51;;;;;;;28.30;20.97;;;8.70;99.90;;;8.02;85.07;101377.28;5094086;28;20268;-77
2023/04/16 07:51:23;;;;;;;28.90;20.70;;;8.70;99.90;;;8.02;85.34;101382.59;5094202;28;20208;-77
2023/04/16 07:53:55;;;;;;;28.30;19.77;;;8.80;99.90;;;8.07;85.39;101380.41;5093815;28;20579;-77
2023/04/16 07:56:27;;;;;;;28.17;20.23;;;8.80;99.90;;;8.04;85.02;101383.34;5094176;28;20196;-77
2023/04/16 07:59:00;;;;;;;27.00;20.23;;;8.80;99.90;;;8.05;85.14;101399.19;5093709;28;20246;-76
2023/04/16 08:01:52;;;;;;;26.17;20.03;;;8.80;99.90;;;8.08;85.05;101390.13;5093039;28;20204;-76
2023/04/16 08:04:24;;;;;;;26.90;19.83;;;8.80;99.90;;;8.07;84.83;101393.75;5093776;28;20189;-76
2023/04/16 08:06:57;;;;;;;28.33;20.43;;;8.80;99.90;;;8.10;84.81;101398.81;5093783;28;20233;-76
2023/04/16 08:09:30;;;;;;;27.23;20.07;;;8.80;99.90;;;8.11;84.58;101397.84;5093652;28;20270;-76
2023/04/16 08:12:04;;;;;;;29.53;20.43;;;8.80;99.90;;;8.16;84.51;101399.16;5093517;28;20193;-77
2023/04/16 08:14:37;;;;;;;27.27;21.03;;;8.90;99.90;;;8.22;84.65;101410.28;5093700;28;20194;-77
2023/04/16 08:17:09;;;;;;;27.37;20.30;;;8.90;99.90;;;8.27;84.69;101413.41;5093510;28;20228;-77
2023/04/16 08:19:42;;;;;;;26.67;20.40;;;9.00;99.90;;;8.28;84.87;101408.00;5093504;28;20181;-77
2023/04/16 08:22:15;;;;;;;28.23;19.67;;;9.00;99.90;;;8.27;84.14;101411.59;5093780;28;20196;-76
2023/04/16 08:24:47;;;;;;;25.70;19.37;;;9.00;99.90;;;8.31;84.13;101417.56;5093633;28;20193;-76
2023/04/16 08:27:19;;;;;;;23.30;19.30;;;9.00;99.90;;;8.32;83.84;101414.72;5093322;28;20231;-77
2023/04/16 08:29:52;;;;;;;27.57;19.67;;;9.00;99.90;;;8.33;83.80;101421.78;5093745;28;20579;-76
2023/04/16 08:32:25;;;;;;;28.07;20.20;;;9.00;99.90;;;8.35;84.24;101421.66;5093317;28;20193;-76
2023/04/16 08:34:58;;;;;;;24.87;18.93;;;9.10;99.90;;;8.37;84.56;101423.22;5093344;28;20561;-76
2023/04/16 08:37:29;;;;;;;24.73;18.43;;;9.10;99.90;;;8.37;84.47;101428.53;5093524;28;20229;-76
2023/04/16 08:40:02;;;;;;;23.63;18.87;;;9.10;99.90;;;8.38;83.98;101429.41;5093295;28;20645;-76
2023/04/16 08:42:45;;;;;;;25.10;19.77;;;9.10;99.90;;;8.39;84.35;101431.09;5093252;28;20212;-76
2023/04/16 08:45:20;;;;;;;28.07;19.10;;;9.10;99.90;;;8.40;84.79;101435.44;5093570;28;20189;-76
2023/04/16 08:47:53;;;;;;;23.17;18.40;;;9.10;99.90;;;8.43;84.03;101437.84;5093406;28;20224;-76
2023/04/16 08:50:29;;;;;;;24.10;18.87;;;9.20;99.90;;;8.44;84.37;101443.06;5093402;28;20213;-76
2023/04/16 08:53:06;;;;;;;25.07;18.03;;;9.20;99.90;;;8.43;83.98;101446.69;5093835;28;20196;-77
2023/04/16 08:55:46;;;;;;;28.03;19.33;;;9.20;99.90;;;8.43;83.76;101449.38;5093874;28;20193;-76
2023/04/16 08:58:22;;;;;;;25.53;19.50;;;9.10;99.90;;;8.44;83.97;101445.72;5093137;28;20235;-76
2023/04/16 09:00:56;;;;;;;27.17;19.67;;;9.20;99.90;;;8.43;83.76;101453.84;5093310;28;20185;-76
2023/04/16 09:03:29;;;;;;;27.90;19.13;;;9.20;99.90;;;8.42;83.82;101457.53;5093016;28;20559;-76
2023/04/16 09:06:04;;;;;;;24.83;19.47;;;9.20;99.90;;;8.42;83.99;101455.69;5093334;28;20193;-76
2023/04/16 09:08:40;;;;;;;26.30;19.37;;;9.20;99.90;;;8.43;83.85;101453.84;5093162;28;20224;-76
2023/04/16 09:11:13;;;;;;;25.93;18.50;;;9.10;99.90;;;8.46;83.87;101449.09;5093306;28;20196;-76
2023/04/16 09:13:45;;;;;;;25.70;19.03;;;9.20;99.90;;;8.46;84.02;101456.28;5094972;28;20200;-76
2023/04/16 09:16:20;;;;;;;29.07;19.27;;;9.20;99.90;;;8.49;84.03;101464.84;5096842;28;20193;-76
2023/04/16 09:18:54;;;;;;;24.37;18.10;;;9.20;99.90;;;8.47;83.90;101458.81;5096957;28;20231;-77
2023/04/16 09:21:26;;;;;;;26.87;19.47;;;9.20;99.90;;;8.50;83.52;101455.88;5096954;28;20559;-75
2023/04/16 09:23:59;;;;;;;26.77;18.73;;;9.20;99.90;;;8.52;83.65;101459.28;5096647;28;20660;-77
2023/04/16 09:26:32;;;;;;;23.57;17.67;;;9.20;99.90;;;8.50;83.93;101458.56;5096966;28;20197;-76
2023/04/16 09:29:04;;;;;;;24.90;18.00;;;9.20;99.90;;;8.54;83.15;101457.31;5096775;28;20225;-77
2023/04/16 09:31:37;;;;;;;24.47;18.70;;;9.30;99.90;;;8.58;83.25;101468.59;5096817;28;20263;-77
2023/04/16 09:34:11;;;;;;;24.33;18.93;;;9.30;99.90;;;8.58;83.38;101468.59;5096498;28;20699;-77
2023/04/16 09:36:43;;;;;;;25.63;18.53;;;9.30;99.90;;;8.54;83.46;101470.66;5096323;28;20193;-77
2023/04/16 09:39:22;;;;;;;22.43;18.90;;;9.30;99.90;;;8.56;83.69;101476.72;5096744;28;20185;-77
2023/04/16 09:41:57;;;;;;;24.67;18.40;;;9.30;99.90;;;8.58;83.47;101480.13;5096614;28;20221;-77
2023/04/16 09:44:39;;;;;;;25.37;18.80;;;9.30;99.90;;;8.59;83.48;101484.47;5096281;28;20634;-77
2023/04/16 09:47:13;;;;;;;23.60;17.37;;;9.30;99.90;;;8.59;83.72;101481.81;5096492;28;20225;-77
2023/04/16 09:49:48;;;;;;;23.77;18.67;;;9.30;99.90;;;8.60;83.79;101485.31;5096377;28;20231;-77
2023/04/16 09:52:22;;;;;;;23.53;18.50;;;9.30;99.90;;;8.56;84.61;101486.56;5096381;28;20193;-77
2023/04/16 09:54:56;;;;;;;26.23;20.00;;;9.30;99.90;;;8.54;85.82;101499.16;5096391;28;20185;-76
2023/04/16 09:57:29;;;;;;;27.93;19.73;;;9.20;99.90;;;8.55;86.09;101488.38;5096327;28;20228;-77
2023/04/16 10:00:09;;;;;;;26.10;20.47;;;9.30;99.90;;;8.54;86.79;101494.69;5095929;28;20231;-76
2023/04/16 10:02:43;;;;;;;27.27;20.33;;;9.20;99.90;;;8.53;86.13;101486.78;5096271;28;20196;-77
2023/04/16 10:05:19;;;;;;;29.40;21.77;;;9.20;99.90;;;8.49;86.88;101502.22;5096166;28;20246;-77
2023/04/16 10:07:53;;;;;;;28.07;21.43;;;9.20;99.90;;;8.51;86.93;101504.78;5095762;28;20224;-77
2023/04/16 10:10:26;;;;;;;28.40;22.03;;;9.20;99.90;;;8.44;88.10;101507.09;5095994;28;20209;-77
2023/04/16 10:12:58;;;;;;;30.10;22.47;;;9.20;99.90;;;8.48;88.11;101513.03;5096062;28;20196;-77
2023/04/16 10:15:30;;;;;;;27.33;21.13;;;9.20;99.90;;;8.44;88.17;101515.13;5096012;28;20200;-77
2023/04/16 10:18:05;;;;;;;28.13;22.87;;;9.10;99.90;;;8.43;88.97;101518.75;5095878;28;20236;-77
2023/04/16 10:20:37;;;;;;;29.93;22.73;;;9.10;99.90;;;8.42;89.39;101511.75;5095893;28;20189;-77
2023/04/16 10:23:11;;;;;;;33.10;25.37;;;9.10;99.90;;;8.42;90.09;101525.09;5095570;28;20189;-76
2023/04/16 10:25:47;;;;;;;31.20;23.87;;;9.10;99.90;;;8.45;89.99;101518.63;5094986;28;20189;-76
2023/04/16 10:28:19;;;;;;;32.10;25.73;;;9.10;99.90;;;8.43;91.05;101523.22;5095728;28;20224;-77
2023/04/16 10:30:53;;;;;;;32.87;25.67;;;9.10;99.90;;;8.45;90.57;101523.97;5095603;28;20205;-76
2023/04/16 10:33:31;;;;;;;30.20;25.00;;;9.10;99.90;;;8.42;90.79;101522.41;5095682;28;20247;-77
2023/04/16 10:36:11;;;;;;;33.83;26.10;;;9.10;99.90;;;8.42;90.63;101526.91;5095364;28;20637;-77